Time;durP1;ratioP1;P1;durP2;ratioP2;P2;SDS_P1;SDS_P2;PMS_P1;PMS_P2;Temp;Humidity;BMP_temperature;BMP_pressure;BME280_temperature;BME280_humidity;BME280_pressure;Samples;Min_cycle;Max_cycle;Signal;HPM_P1;HPM_P2
2022/12/13 00:01:28;;;;;;;97.22;52.15;;;;;;;-5.47;100.00;66188.56;4977352;28;20478;-82
2022/12/13 00:03:58;;;;;;;86.57;46.63;;;;;;;-5.47;100.00;66180.19;4990130;28;20076;-82
2022/12/13 00:06:24;;;;;;;86.18;47.28;;;;;;;-5.55;100.00;66171.25;4991188;28;20133;-82
2022/12/13 00:08:50;;;;;;;91.28;50.35;;;;;;;-5.61;100.00;66169.72;4993635;28;20092;-83
2022/12/13 00:11:16;;;;;;;89.88;50.90;;;;;;;-5.62;100.00;66166.00;4994748;28;20042;-82
2022/12/13 00:13:42;;;;;;;89.18;52.63;;;;;;;-5.70;100.00;66160.78;4988142;28;20050;-82
2022/12/13 00:16:11;;;;;;;89.28;48.70;;;;;;;-5.70;100.00;66155.59;4990856;28;20739;-82
2022/12/13 00:18:37;;;;;;;86.40;47.03;;;;;;;-5.67;100.00;66161.56;4991325;28;20457;-82
2022/12/13 00:21:04;;;;;;;93.03;51.50;;;;;;;-5.67;100.00;66163.56;4992862;28;20148;-83
2022/12/13 00:23:30;;;;;;;82.95;48.17;;;;;;;-5.61;100.00;66169.72;4991527;28;20046;-83
2022/12/13 00:26:01;;;;;;;84.38;49.95;;;;;;;-5.76;100.00;66154.06;4992897;28;20039;-82
2022/12/13 00:28:26;;;;;;;84.55;50.50;;;;;;;-5.74;100.00;66151.13;4992182;28;20038;-83
2022/12/13 00:30:56;;;;;;;80.80;47.28;;;;;;;-5.79;100.00;66150.72;4990522;28;20057;-82
2022/12/13 00:33:21;;;;;;;85.25;47.42;;;;;;;-5.77;100.00;66152.94;4993268;28;20425;-83
2022/12/13 00:35:47;;;;;;;86.13;46.38;;;;;;;-5.81;100.00;66147.91;4993150;28;20057;-83
2022/12/13 00:38:12;;;;;;;78.18;46.72;;;;;;;-5.76;100.00;66156.09;5000495;28;20041;-83
2022/12/13 00:40:37;;;;;;;90.78;50.78;;;;;;;-5.79;100.00;66148.13;4999965;28;20477;-82
2022/12/13 00:43:03;;;;;;;83.55;46.95;;;;;;;-5.80;100.00;66147.00;4993894;28;20046;-82
2022/12/13 00:45:28;;;;;;;87.15;49.17;;;;;;;-5.88;100.00;66143.25;4990151;28;20038;-82
2022/12/13 00:47:53;;;;;;;79.68;46.33;;;;;;;-5.92;100.00;66133.59;4994854;28;20049;-82
2022/12/13 00:50:19;;;;;;;90.15;49.72;;;;;;;-5.88;100.00;66138.06;4991400;28;20038;-82
2022/12/13 00:52:44;;;;;;;91.90;47.25;;;;;;;-5.86;100.00;66137.72;4994765;28;20030;-82
2022/12/13 00:55:09;;;;;;;89.28;50.33;;;;;;;-5.82;100.00;66147.34;4993147;28;20504;-82
2022/12/13 00:57:35;;;;;;;75.28;40.67;;;;;;;-5.85;100.00;66138.81;4996021;28;20112;-82
2022/12/13 01:00:00;;;;;;;87.55;48.30;;;;;;;-5.79;100.00;66148.13;4992497;28;20046;-82
2022/12/13 01:02:26;;;;;;;82.25;44.78;;;;;;;-5.85;100.00;66143.44;4988518;28;20047;-82
2022/12/13 01:04:51;;;;;;;88.32;49.95;;;;;;;-5.90;100.00;66138.41;4992932;28;20046;-82
2022/12/13 01:07:16;;;;;;;85.85;45.38;;;;;;;-5.94;100.00;66131.94;5010837;28;20064;-82
2022/12/13 01:09:42;;;;;;;84.60;48.75;;;;;;;-5.93;100.00;66135.06;5001629;28;20061;-82
2022/12/13 01:12:10;;;;;;;85.65;44.83;;;;;;;-5.87;100.00;66139.16;4991928;28;20117;-82
2022/12/13 01:14:38;;;;;;;87.35;49.50;;;;;;;-5.88;100.00;66140.09;4993209;28;20038;-82
2022/12/13 01:17:04;;;;;;;86.15;46.80;;;;;;;-6.02;100.00;66125.56;4998432;28;20045;-83
2022/12/13 01:19:30;;;;;;;84.80;45.15;;;;;;;-6.02;100.00;66122.44;4989751;28;20502;-83
2022/12/13 01:22:01;;;;;;;88.97;47.97;;;;;;;-6.06;100.00;66120.56;4991191;28;20045;-83
2022/12/13 01:24:27;;;;;;;87.05;49.63;;;;;;;-6.05;100.00;66122.22;4982038;28;20081;-83
2022/12/13 01:26:52;;;;;;;86.82;48.13;;;;;;;-6.04;100.00;66122.78;5000491;28;20038;-82
2022/12/13 01:29:20;;;;;;;93.43;50.03;;;;;;;-6.06;100.00;66118.53;4997762;28;20046;-82
2022/12/13 01:31:46;;;;;;;83.10;43.83;;;;;;;-6.01;100.00;66120.94;4999372;28;20495;-82
2022/12/13 01:34:12;;;;;;;80.78;42.40;;;;;;;-6.06;100.00;66115.94;4999078;28;20046;-82
2022/12/13 01:36:40;;;;;;;79.05;42.33;;;;;;;-6.07;100.00;66119.41;4998496;28;20054;-82
2022/12/13 01:39:07;;;;;;;83.50;44.55;;;;;;;-6.00;100.00;66124.66;4996798;28;20047;-82
2022/12/13 01:41:33;;;;;;;83.10;45.80;;;;;;;-6.04;100.00;66122.78;4995809;28;20042;-82
2022/12/13 01:44:02;;;;;;;81.85;46.10;;;;;;;-6.04;100.00;66122.78;4995368;28;20092;-82
2022/12/13 01:46:30;;;;;;;81.45;44.67;;;;;;;-6.06;100.00;66123.16;4992158;28;20054;-82
2022/12/13 01:49:04;;;;;;;72.13;40.08;;;;;;;-6.17;100.00;66109.38;4997403;28;20126;-82
2022/12/13 01:51:40;;;;;;;79.50;44.22;;;;;;;-6.21;100.00;66104.34;4990513;28;20047;-82
2022/12/13 01:54:09;;;;;;;77.30;44.53;;;;;;;-6.25;100.00;66100.41;4996166;28;20741;-82
2022/12/13 01:56:46;;;;;;;82.97;44.95;;;;;;;-6.27;100.00;66092.44;4988191;28;20046;-82
2022/12/13 01:59:14;;;;;;;77.75;45.30;;;;;;;-6.30;100.00;66097.44;4994133;28;20056;-82
2022/12/13 02:01:40;;;;;;;77.18;44.85;;;;;;;-6.34;100.00;66092.94;4995510;28;20038;-82
2022/12/13 02:04:06;;;;;;;81.68;44.20;;;;;;;-6.30;100.00;66094.28;4990821;28;20038;-82
2022/12/13 02:06:51;;;;;;;77.75;42.70;;;;;;;-6.33;100.00;66091.47;4994308;28;20042;-82
2022/12/13 02:09:17;;;;;;;79.28;44.63;;;;;;;-6.26;100.00;66099.31;4991033;28;20421;-82
2022/12/13 02:11:44;;;;;;;79.65;43.88;;;;;;;-6.23;100.00;66105.25;4979935;28;20046;-82
2022/12/13 02:14:09;;;;;;;77.22;44.10;;;;;;;-6.25;100.00;66097.84;4996526;28;20093;-82
2022/12/13 02:16:44;;;;;;;72.93;41.15;;;;;;;-6.24;100.00;66098.97;4995142;28;20038;-82
2022/12/13 02:19:25;;;;;;;78.50;42.17;;;;;;;-6.32;100.00;66092.59;4996971;28;20196;-82
2022/12/13 02:22:22;;;;;;;73.75;44.05;;;;;;;-6.38;100.00;66083.31;5007553;28;20046;-82
2022/12/13 02:25:06;;;;;;;73.47;42.50;;;;;;;-6.41;100.00;66077.94;4971214;28;20049;-82
2022/12/13 02:27:58;;;;;;;74.40;40.35;;;;;;;-6.44;100.00;66076.63;4991047;28;20069;-82
2022/12/13 02:30:36;;;;;;;72.60;42.50;;;;;;;-6.45;100.00;66072.91;4998812;28;20049;-82
2022/12/13 02:33:24;;;;;;;76.70;43.63;;;;;;;-6.42;100.00;66078.84;4996904;28;20410;-82
2022/12/13 02:36:07;;;;;;;78.07;39.42;;;;;;;-6.45;100.00;66076.03;5009039;28;20046;-82
2022/12/13 02:38:46;;;;;;;78.28;43.55;;;;;;;-6.46;100.00;66076.97;4996532;28;20038;-82
2022/12/13 02:41:25;;;;;;;73.60;41.67;;;;;;;-6.50;100.00;66077.66;4993867;28;20065;-82
2022/12/13 02:44:00;;;;;;;;;;;;;;;-6.55;100.00;66066.91;5006034;28;20120;-82
2022/12/13 02:46:30;;;;;;;69.68;40.28;;;;;;;-6.72;100.00;66051.59;4989545;28;19913;-82
2022/12/13 02:48:57;;;;;;;71.63;42.85;;;;;;;-6.66;100.00;66055.16;5000035;28;20049;-82
2022/12/13 02:51:25;;;;;;;69.82;39.75;;;;;;;-6.60;100.00;66056.69;4997923;28;20034;-82
2022/12/13 02:53:51;;;;;;;75.07;39.45;;;;;;;-6.52;100.00;66065.09;4998044;28;20677;-82
2022/12/13 02:56:16;;;;;;;70.50;40.17;;;;;;;-6.60;100.00;66064.47;4994199;28;20054;-82
2022/12/13 02:58:48;;;;;;;69.50;41.22;;;;;;;-6.64;100.00;66052.78;4987292;28;20074;-82
2022/12/13 03:01:26;;;;;;;71.22;38.72;;;;;;;-6.54;100.00;66065.97;4997398;28;20046;-82
2022/12/13 03:03:52;;;;;;;71.15;41.88;;;;;;;-6.57;100.00;66062.06;4976811;28;20406;-82
2022/12/13 03:06:37;;;;;;;69.38;39.30;;;;;;;-6.60;100.00;66059.84;4989509;28;20042;-82
2022/12/13 03:09:36;;;;;;;66.30;39.42;;;;;;;-6.71;100.00;66047.53;4988825;28;20114;-82
2022/12/13 03:15:34;;;;;;;67.47;36.97;;;;;;;-6.83;100.00;66037.28;5007055;28;20137;-82
2022/12/13 03:18:14;;;;;;;70.65;40.53;;;;;;;-6.80;100.00;66042.66;5006954;28;20038;-82
2022/12/13 03:20:46;;;;;;;65.47;40.33;;;;;;;-6.86;100.00;66035.97;4993244;28;20043;-81
2022/12/13 03:23:12;;;;;;;78.80;42.15;;;;;;;-6.86;100.00;66033.94;4995078;28;20046;-81
2022/12/13 03:25:38;;;;;;;71.35;39.90;;;;;;;-6.78;100.00;66039.72;4991277;28;20046;-81
2022/12/13 03:28:03;;;;;;;72.30;41.30;;;;;;;-6.82;100.00;66037.84;4992799;28;20041;-81
2022/12/13 03:30:31;;;;;;;67.55;40.20;;;;;;;-6.84;100.00;66038.22;4994275;28;20038;-81
2022/12/13 03:32:56;;;;;;;69.88;41.92;;;;;;;-6.89;100.00;66030.59;4994482;28;20056;-82
2022/12/13 03:35:22;;;;;;;72.05;42.15;;;;;;;-6.86;100.00;66033.94;4997926;28;20140;-82
2022/12/13 03:37:47;;;;;;;69.95;39.63;;;;;;;-6.86;100.00;66030.78;4981608;28;20050;-81
2022/12/13 03:40:12;;;;;;;75.32;41.47;;;;;;;;;;4974118;28;20139;-82
2022/12/13 03:42:38;;;;;;;70.25;41.78;;;;;;;-6.88;100.00;66031.16;4990348;28;20050;-81
2022/12/13 03:45:04;;;;;;;66.18;37.80;;;;;;;-6.91;100.00;66025.22;4988997;28;20077;-81
2022/12/13 03:47:29;;;;;;;72.80;41.45;;;;;;;-6.83;100.00;66034.69;4985200;28;20043;-81
2022/12/13 03:49:54;;;;;;;70.10;39.90;;;;;;;-6.84;100.00;66035.63;4991592;28;20487;-81
2022/12/13 03:52:20;;;;;;;67.75;39.30;;;;;;;-6.77;100.00;66037.69;4992561;28;20094;-81
2022/12/13 03:54:45;;;;;;;72.97;41.55;;;;;;;-6.77;100.00;66042.88;4991195;28;20050;-81
2022/12/13 03:57:11;;;;;;;74.95;40.45;;;;;;;-6.77;100.00;66043.44;4991152;28;20069;-82
2022/12/13 03:59:36;;;;;;;69.93;41.40;;;;;;;-6.89;100.00;66027.44;4992606;28;20061;-81
2022/12/13 04:02:01;;;;;;;66.72;37.13;;;;;;;-6.89;100.00;66030.03;4991158;28;20053;-81
2022/12/13 04:04:27;;;;;;;67.43;38.70;;;;;;;-6.95;100.00;66020.75;4994414;28;20046;-82
2022/12/13 04:06:52;;;;;;;69.50;41.75;;;;;;;-6.92;100.00;66021.50;4991192;28;20057;-81
2022/12/13 04:09:17;;;;;;;69.47;42.25;;;;;;;-6.91;100.00;66028.34;4993492;28;20173;-82
2022/12/13 04:14:26;;;;;;;71.47;42.15;;;;;;;-7.02;100.00;66016.06;4994565;28;20065;-81
2022/12/13 04:16:52;;;;;;;63.10;38.33;;;;;;;-7.03;100.00;66014.94;4994438;28;20050;-82
2022/12/13 04:19:17;;;;;;;69.00;41.58;;;;;;;-7.00;100.00;66017.75;4994485;28;20054;-82
2022/12/13 04:21:43;;;;;;;67.32;39.95;;;;;;;-7.10;100.00;66007.69;4993497;28;20408;-82
2022/12/13 04:24:08;;;;;;;62.92;38.22;;;;;;;-7.13;100.00;66004.34;4988688;28;20038;-82
2022/12/13 04:26:33;;;;;;;65.25;38.22;;;;;;;-7.13;100.00;66004.34;4996381;28;20038;-82
2022/12/13 04:28:59;;;;;;;68.15;40.58;;;;;;;-7.14;100.00;66000.06;4994328;28;20046;-82
2022/12/13 04:31:24;;;;;;;66.07;41.53;;;;;;;-7.10;100.00;66007.16;4994596;28;20058;-81
2022/12/13 04:33:50;;;;;;;66.35;40.60;;;;;;;-7.10;100.00;66009.72;4993303;28;20039;-81
2022/12/13 04:36:18;;;;;;;62.38;36.65;;;;;;;-7.11;100.00;66003.44;4991259;28;20050;-81
2022/12/13 04:38:47;;;;;;;69.53;38.80;;;;;;;-7.10;100.00;66007.69;4990470;28;20553;-82
2022/12/13 04:41:17;;;;;;;62.40;37.22;;;;;;;-7.11;100.00;66006.56;4993549;28;20066;-82
2022/12/13 04:43:48;;;;;;;65.72;37.42;;;;;;;-7.07;100.00;66008.47;4993918;28;20038;-82
2022/12/13 04:46:14;;;;;;;66.38;38.85;;;;;;;-7.04;100.00;66011.81;4993487;28;20042;-82
2022/12/13 04:48:39;;;;;;;66.53;37.13;;;;;;;-7.06;100.00;66009.56;5010449;28;20586;-81
2022/12/13 04:51:04;;;;;;;67.60;36.70;;;;;;;-7.17;100.00;66001.91;5013224;28;20034;-81
2022/12/13 04:53:30;;;;;;;62.15;37.72;;;;;;;-7.16;100.00;66003.59;4993962;28;20038;-81
2022/12/13 04:55:56;;;;;;;67.85;41.05;;;;;;;-7.17;100.00;65994.69;4994263;28;20038;-81
2022/12/13 04:58:21;;;;;;;65.63;37.65;;;;;;;-7.17;100.00;66002.44;4995967;28;20038;-81
2022/12/13 05:00:46;;;;;;;67.90;39.47;;;;;;;-7.20;100.00;65995.97;4994252;28;20046;-81
2022/12/13 05:03:12;;;;;;;71.30;40.08;;;;;;;-7.18;100.00;65993.59;4990640;28;20073;-81
2022/12/13 05:05:39;;;;;;;65.15;37.10;;;;;;;-7.16;100.00;65995.81;4992098;28;20128;-81
2022/12/13 05:08:05;;;;;;;66.05;37.15;;;;;;;-7.10;100.00;66009.72;4996173;28;20038;-81
2022/12/13 05:10:31;;;;;;;62.58;37.58;;;;;;;-7.06;100.00;66006.44;4993535;28;20042;-81
2022/12/13 05:12:57;;;;;;;66.63;36.33;;;;;;;-7.04;100.00;66011.25;4990382;28;20410;-81
2022/12/13 05:15:23;;;;;;;58.78;36.92;;;;;;;-7.15;100.00;66004.13;4992787;28;20034;-81
2022/12/13 05:17:48;;;;;;;61.63;37.47;;;;;;;-7.14;100.00;66003.22;4990134;28;20045;-81
2022/12/13 05:20:14;;;;;;;63.10;35.97;;;;;;;-7.21;100.00;65992.81;4973516;28;20602;-81
2022/12/13 05:22:39;;;;;;;63.28;36.47;;;;;;;-7.19;100.00;65997.06;4983714;28;20049;-81
2022/12/13 05:25:05;;;;;;;61.80;34.63;;;;;;;-7.17;100.00;65997.28;4994699;28;20046;-81
2022/12/13 05:27:31;;;;;;;60.88;33.33;;;;;;;-7.25;100.00;65988.34;4993011;28;20042;-81
2022/12/13 05:29:56;;;;;;;61.70;35.30;;;;;;;-7.19;100.00;65995.06;4994127;28;20043;-81
2022/12/13 05:32:21;;;;;;;59.97;36.25;;;;;;;-7.17;100.00;65996.72;4981682;28;20093;-81
2022/12/13 05:34:47;;;;;;;60.78;36.22;;;;;;;-7.19;100.00;65997.06;4983318;28;20805;-82
2022/12/13 05:37:12;;;;;;;58.35;35.70;;;;;;;-7.24;100.00;65989.47;4989764;28;20042;-82
2022/12/13 05:39:38;;;;;;;59.25;34.90;;;;;;;-7.30;100.00;65985.91;4987018;28;20040;-81
2022/12/13 05:42:03;;;;;;;61.22;37.47;;;;;;;-7.33;100.00;65982.00;4991082;28;20062;-82
2022/12/13 05:44:32;;;;;;;58.38;34.42;;;;;;;-7.36;100.00;65978.66;4987284;28;20066;-82
2022/12/13 05:46:58;;;;;;;60.35;34.83;;;;;;;-7.33;100.00;65982.00;4988320;28;20046;-82
2022/12/13 05:49:23;;;;;;;60.60;36.92;;;;;;;-7.27;100.00;65991.84;5000182;23;20094;-77
2022/12/13 05:51:49;;;;;;;56.78;34.67;;;;;;;-7.32;100.00;65983.13;4959276;28;20454;-77
2022/12/13 05:54:14;;;;;;;59.33;34.53;;;;;;;-7.34;100.00;65983.47;4953266;28;20114;-77
2022/12/13 05:56:39;;;;;;;56.75;35.50;;;;;;;-7.34;100.00;65978.31;4952396;28;20039;-79
2022/12/13 05:59:05;;;;;;;60.45;35.33;;;;;;;-7.37;100.00;65977.53;4950595;28;20093;-78
2022/12/13 06:01:30;;;;;;;60.00;36.30;;;;;;;-7.41;100.00;65975.66;4946541;28;20518;-77
2022/12/13 06:03:56;;;;;;;60.95;36.05;;;;;;;-7.38;100.00;65976.97;4971526;28;20123;-77
2022/12/13 06:06:21;;;;;;;61.67;37.50;;;;;;;-7.41;100.00;65973.09;4990242;28;20077;-79
2022/12/13 06:08:46;;;;;;;60.20;36.85;;;;;;;-7.35;100.00;65977.19;4991452;28;20100;-77
2022/12/13 06:11:12;;;;;;;60.28;34.83;;;;;;;-7.46;100.00;65965.47;4990827;28;20128;-77
2022/12/13 06:13:39;;;;;;;60.97;38.10;;;;;;;-7.44;100.00;65970.28;4985958;28;20141;-78
2022/12/13 06:16:05;;;;;;;66.10;36.88;;;;;;;-7.43;100.00;65968.25;4990051;28;20037;-76
2022/12/13 06:18:33;;;;;;;65.57;38.63;;;;;;;-7.43;100.00;65970.84;4990493;28;20034;-78
2022/12/13 06:21:01;;;;;;;63.20;37.25;;;;;;;-7.47;100.00;65969.53;4989627;28;20069;-76
2022/12/13 06:23:28;;;;;;;63.90;33.70;;;;;;;-7.55;100.00;65963.19;4991822;28;20034;-77
2022/12/13 06:25:53;;;;;;;62.45;34.15;;;;;;;-7.57;100.00;65961.50;4990642;28;20077;-78
2022/12/13 06:28:19;;;;;;;60.80;36.17;;;;;;;-7.55;100.00;65955.97;4995951;28;20039;-79
2022/12/13 06:30:44;;;;;;;65.95;37.15;;;;;;;-7.47;100.00;65964.34;4975161;28;20050;-78
2022/12/13 06:33:10;;;;;;;66.43;37.92;;;;;;;-7.59;100.00;65953.56;4993136;28;20068;-79
2022/12/13 06:35:36;;;;;;;61.75;35.53;;;;;;;-7.55;100.00;65958.00;4991615;28;20069;-79
2022/12/13 06:38:01;;;;;;;69.72;39.92;;;;;;;-7.55;100.00;65958.56;4994784;28;20109;-78
2022/12/13 06:40:27;;;;;;;65.28;39.30;;;;;;;-7.52;100.00;65964.50;4994856;28;20054;-76
2022/12/13 06:42:52;;;;;;;66.15;38.83;;;;;;;-7.56;100.00;65952.28;4993096;28;20038;-79
2022/12/13 06:45:17;;;;;;;70.30;40.83;;;;;;;-7.58;100.00;65955.22;4993553;28;20133;-79
2022/12/13 06:47:43;;;;;;;69.70;40.15;;;;;;;-7.58;100.00;65955.22;4991186;28;20120;-79
2022/12/13 06:50:08;;;;;;;71.13;41.65;;;;;;;-7.56;100.00;65954.31;4990023;28;20061;-79
2022/12/13 06:52:34;;;;;;;70.13;39.88;;;;;;;-7.56;100.00;65954.31;4991304;28;20042;-79
2022/12/13 06:55:00;;;;;;;70.28;40.00;;;;;;;-7.59;100.00;65954.09;4990336;28;20038;-77
2022/12/13 06:57:25;;;;;;;73.47;41.15;;;;;;;-7.59;100.00;65954.09;4993215;28;20121;-78
2022/12/13 06:59:51;;;;;;;74.43;43.17;;;;;;;-7.62;100.00;65947.59;4992202;28;20461;-79
2022/12/13 07:02:16;;;;;;;72.60;42.92;;;;;;;-7.63;100.00;65949.63;4993575;28;20056;-79
2022/12/13 07:04:41;;;;;;;73.57;44.10;;;;;;;-7.66;100.00;65945.72;4992839;28;20080;-77
2022/12/13 07:07:07;;;;;;;71.63;43.00;;;;;;;-7.68;100.00;65940.91;4982543;28;20101;-79
2022/12/13 07:09:32;;;;;;;72.55;42.20;;;;;;;-7.67;100.00;65942.59;4992453;28;20145;-78
2022/12/13 07:11:58;;;;;;;65.18;40.30;;;;;;;-7.68;100.00;65943.50;4993432;28;20088;-79
2022/12/13 07:14:24;;;;;;;69.53;40.55;;;;;;;-7.65;100.00;65947.41;4993096;28;20692;-77
2022/12/13 07:16:49;;;;;;;68.35;39.40;;;;;;;-7.66;100.00;65946.28;4991640;28;20045;-80
2022/12/13 07:19:14;;;;;;;59.50;36.63;;;;;;;-7.65;100.00;65944.25;4991865;28;20038;-79
2022/12/13 07:21:40;;;;;;;61.15;38.00;;;;;;;-7.64;100.00;65947.97;4990163;28;20030;-77
2022/12/13 07:24:06;;;;;;;66.18;38.97;;;;;;;-7.65;100.00;65946.84;4992972;28;20046;-79
2022/12/13 07:26:31;;;;;;;60.22;37.78;;;;;;;-7.61;100.00;65946.69;4994648;28;20713;-78
2022/12/13 07:28:56;;;;;;;63.92;39.08;;;;;;;-7.71;100.00;65935.53;4992970;28;20042;-78
2022/12/13 07:31:23;;;;;;;66.65;39.97;;;;;;;-7.74;100.00;65940.50;4992223;28;20038;-80
2022/12/13 07:33:48;;;;;;;62.95;37.90;;;;;;;-7.72;100.00;65940.13;4991773;28;20540;-78
2022/12/13 07:36:16;;;;;;;59.30;36.20;;;;;;;;;;4990514;28;20076;-79
2022/12/13 07:38:42;;;;;;;64.95;40.08;;;;;;;-7.65;100.00;65944.81;4992469;28;20060;-80
2022/12/13 07:41:07;;;;;;;60.80;35.08;;;;;;;-7.67;100.00;65947.75;4991948;28;20489;-77
2022/12/13 07:43:34;;;;;;;58.85;37.58;;;;;;;-7.75;100.00;65936.78;4992808;28;20092;-77
2022/12/13 07:46:01;;;;;;;59.30;34.17;;;;;;;-7.72;100.00;65934.97;4992712;28;20121;-79
2022/12/13 07:48:27;;;;;;;61.58;36.47;;;;;;;-7.67;100.00;65945.16;4992126;28;20042;-79
2022/12/13 07:50:53;;;;;;;58.17;33.65;;;;;;;-7.64;100.00;65947.97;4991276;28;20096;-79
2022/12/13 07:53:20;;;;;;;57.20;34.42;;;;;;;-7.64;100.00;65947.97;4990633;28;20043;-80
2022/12/13 07:55:45;;;;;;;56.05;35.60;;;;;;;-7.72;100.00;65934.97;4990592;28;20038;-76
2022/12/13 07:58:14;;;;;;;61.90;35.47;;;;;;;-7.70;100.00;65943.84;4992639;28;20676;-80
2022/12/13 08:00:42;;;;;;;59.47;35.58;;;;;;;-7.65;100.00;65952.56;4990115;28;20560;-77
2022/12/13 08:03:08;;;;;;;56.25;31.45;;;;;;;-7.62;100.00;65947.59;4992591;28;20636;-79
2022/12/13 08:05:35;;;;;;;56.97;33.03;;;;;;;-7.57;100.00;65953.19;4984626;28;20098;-79
2022/12/13 08:08:01;;;;;;;55.78;32.85;;;;;;;-7.58;100.00;65952.63;4972853;28;20038;-78
2022/12/13 08:10:27;;;;;;;57.50;32.90;;;;;;;-7.53;100.00;65960.81;4974783;28;20049;-80
2022/12/13 08:12:52;;;;;;;54.33;30.98;;;;;;;-7.52;100.00;65964.50;4991690;28;20409;-80
2022/12/13 08:15:18;;;;;;;56.85;33.97;;;;;;;-7.37;100.00;65977.53;4991537;28;20074;-80
2022/12/13 08:17:44;;;;;;;57.58;34.97;;;;;;;-7.26;100.00;65989.81;4991066;28;20053;-80
2022/12/13 08:20:09;;;;;;;56.65;34.15;;;;;;;-7.33;100.00;65984.59;4991646;28;20051;-80
2022/12/13 08:22:35;;;;;;;56.22;35.28;;;;;;;-7.43;100.00;65973.44;4991511;28;20104;-79
2022/12/13 08:25:01;;;;;;;60.03;36.20;;;;;;;-7.41;100.00;65973.63;4992835;28;20042;-76
2022/12/13 08:27:26;;;;;;;56.38;35.28;;;;;;;-7.28;100.00;65985.56;4991043;28;20195;-78
2022/12/13 08:29:52;;;;;;;60.30;32.97;;;;;;;-7.22;100.00;65994.31;4990998;28;20149;-80
2022/12/13 08:32:17;;;;;;;57.00;34.65;;;;;;;-7.23;100.00;65990.03;4995292;28;20533;-77
2022/12/13 08:34:44;;;;;;;60.03;35.45;;;;;;;-7.16;100.00;65998.41;4993577;28;20085;-80
2022/12/13 08:37:10;;;;;;;53.38;34.28;;;;;;;-7.12;100.00;66005.47;4998898;28;20537;-79
2022/12/13 08:39:37;;;;;;;62.45;34.53;;;;;;;-7.02;100.00;66016.06;4994671;28;20057;-79
2022/12/13 08:42:04;;;;;;;55.17;32.72;;;;;;;-6.88;100.00;66029.09;4996443;28;20038;-80
2022/12/13 08:44:29;;;;;;;60.17;32.78;;;;;;;-6.86;100.00;66028.75;4996012;28;20065;-78
2022/12/13 08:46:55;;;;;;;53.63;33.20;;;;;;;-6.83;100.00;66039.31;4995687;28;20062;-80
2022/12/13 08:49:20;;;;;;;69.68;38.65;;;;;;;-6.71;100.00;66044.41;4997380;28;20053;-79
2022/12/13 08:51:45;;;;;;;65.72;37.88;;;;;;;-6.57;100.00;66064.66;4997550;28;20035;-78
2022/12/13 08:54:11;;;;;;;62.92;34.22;;;;;;;-6.42;100.00;66079.38;4996159;28;20046;-80
2022/12/13 08:56:36;;;;;;;68.97;40.25;;;;;;;-6.25;100.00;66102.44;4993835;28;20104;-77
2022/12/13 08:59:01;;;;;;;62.95;38.53;;;;;;;;;;4994628;28;20401;-79
2022/12/13 09:01:27;;;;;;;65.80;40.22;;;;;;;-6.16;100.00;66105.31;4997235;28;20042;-79
2022/12/13 09:03:54;;;;;;;60.80;34.60;;;;;;;-6.07;100.00;66117.41;4994808;28;20050;-78
2022/12/13 09:06:20;;;;;;;64.20;37.00;;;;;;;-5.93;100.00;66133.03;4995247;28;20046;-79
2022/12/13 09:08:45;;;;;;;72.32;43.90;;;;;;;;;;4995255;28;20453;-79
2022/12/13 09:11:11;;;;;;;65.57;40.20;;;;;;;-5.71;100.00;66157.06;4996946;28;20053;-79
2022/12/13 09:13:37;;;;;;;66.45;38.20;;;;;;;-5.61;100.00;66170.28;4995997;28;20533;-80
2022/12/13 09:16:05;;;;;;;67.40;39.55;;;;;;;-5.48;100.00;66184.81;4996197;28;20042;-78
2022/12/13 09:18:30;;;;;;;71.20;42.42;;;;;;;-5.35;100.00;66196.22;4995319;28;20792;-79
2022/12/13 09:20:56;;;;;;;70.05;40.08;;;;;;;-5.24;100.00;66208.53;4996560;28;20053;-81
2022/12/13 09:23:21;;;;;;;76.72;42.45;;;;;;;-5.12;100.00;66218.22;4996233;28;20077;-78
2022/12/13 09:25:56;;;;;;;71.03;40.70;;;;;;;-5.00;100.00;66245.19;4995366;28;20038;-77
2022/12/13 09:28:21;;;;;;;70.00;40.80;;;;;;;-4.86;100.00;66251.94;4995450;28;20038;-79
2022/12/13 09:30:48;;;;;;;70.38;41.85;;;;;;;-4.72;100.00;66267.06;5004040;28;20066;-78
2022/12/13 09:33:13;;;;;;;78.40;45.90;;;;;;;-4.61;100.00;66274.75;4997488;28;20046;-80
2022/12/13 09:35:39;;;;;;;71.63;44.67;;;;;;;-4.53;100.00;66283.16;4995748;28;20061;-78
2022/12/13 09:38:04;;;;;;;70.63;44.08;;;;;;;-4.45;100.00;66296.75;4998109;28;20120;-79
2022/12/13 09:40:31;;;;;;;73.47;43.60;;;;;;;-4.37;100.00;66303.66;4996034;28;20042;-79
2022/12/13 09:42:58;;;;;;;70.10;41.72;;;;;;;-4.38;100.00;66304.56;4995080;28;20034;-77
2022/12/13 09:45:23;;;;;;;70.15;42.40;;;;;;;-4.21;100.00;66320.47;4995927;28;20058;-80
2022/12/13 09:47:51;;;;;;;78.40;50.28;;;;;;;-4.07;100.00;66338.75;4996432;28;20049;-80
2022/12/13 09:50:35;;;;;;;78.57;45.15;;;;;;;;;;4995260;28;20050;-80
2022/12/13 09:53:03;;;;;;;75.93;42.25;;;;;;;-3.85;100.00;66360.22;4997858;28;20106;-81
2022/12/13 09:55:46;;;;;;;76.93;43.67;;;;;;;-3.76;100.00;66369.75;4997104;28;20049;-78
2022/12/13 09:58:19;;;;;;;73.07;46.75;;;;;;;-3.68;100.00;66379.28;5015712;28;20052;-79
2022/12/13 10:00:47;;;;;;;79.35;48.40;;;;;;;-3.58;100.00;66392.50;5014534;28;20875;-79
2022/12/13 10:03:14;;;;;;;74.78;45.20;;;;;;;-3.46;100.00;66403.34;5007473;28;20052;-80
2022/12/13 10:06:03;;;;;;;72.35;45.17;;;;;;;-3.35;100.00;66414.56;5007198;28;20049;-81
2022/12/13 10:08:39;;;;;;;70.78;46.88;;;;;;;-3.21;100.00;66433.44;5001030;28;20228;-77
2022/12/13 10:11:04;;;;;;;71.22;44.40;;;;;;;;;;4987688;28;20055;-79
2022/12/13 10:13:40;;;;;;;72.40;44.95;;;;;;;-3.05;100.00;66448.22;4986786;28;20480;-77
2022/12/13 10:16:14;;;;;;;73.57;40.72;;;;;;;-3.02;100.00;66451.56;5005525;28;20558;-79
2022/12/13 10:18:42;;;;;;;67.07;42.63;;;;;;;-2.96;100.00;66455.69;5005767;28;20448;-80
2022/12/13 10:21:17;;;;;;;77.93;46.08;;;;;;;-2.86;100.00;66468.38;4990138;28;20113;-78
2022/12/13 10:23:43;;;;;;;72.00;45.40;;;;;;;-2.78;100.00;66474.75;5004311;28;20073;-79
2022/12/13 10:26:10;;;;;;;70.80;42.95;;;;;;;-2.70;100.00;66483.72;5005975;28;20104;-78
2022/12/13 10:28:36;;;;;;;69.97;41.50;;;;;;;;;;4994650;28;20751;-78
2022/12/13 10:31:02;;;;;;;61.42;39.92;;;;;;;-2.54;100.00;66504.28;4990947;28;20141;-79
2022/12/13 10:33:30;;;;;;;65.25;37.47;;;;;;;-2.47;100.00;66513.59;4991599;28;20125;-79
2022/12/13 10:36:27;;;;;;;62.90;39.80;;;;;;;-2.42;100.00;66514.56;4990754;28;20039;-78
2022/12/13 10:38:53;;;;;;;64.55;37.45;;;;;;;-2.35;100.00;66521.88;4986566;28;20687;-78
2022/12/13 10:41:30;;;;;;;57.22;37.70;;;;;;;-2.29;100.00;66528.59;4991136;28;20046;-79
2022/12/13 10:44:11;;;;;;;59.78;37.30;;;;;;;-2.27;100.00;66530.84;4990810;28;20053;-80
2022/12/13 10:46:39;;;;;;;56.03;30.13;;;;;;;-2.20;100.00;66538.13;4987542;28;20046;-80
2022/12/13 10:49:16;;;;;;;57.15;36.88;;;;;;;-2.17;100.00;66542.06;4995752;28;20045;-79
2022/12/13 10:51:41;;;;;;;55.92;33.35;;;;;;;;;;4990871;28;20065;-77
2022/12/13 10:54:16;;;;;;;53.30;34.95;;;;;;;-2.17;100.00;66542.06;4992270;28;20459;-80
2022/12/13 10:56:45;;;;;;;55.47;36.20;;;;;;;;;;4993875;28;20066;-79
2022/12/13 10:59:25;;;;;;;53.25;33.55;;;;;;;-2.02;100.00;66560.94;4991915;28;20042;-80
2022/12/13 11:01:51;;;;;;;50.10;32.63;;;;;;;-2.06;100.00;66556.44;4993463;28;20038;-80
2022/12/13 11:04:21;;;;;;;51.80;34.55;;;;;;;;;;4994361;28;20045;-79
2022/12/13 11:06:47;;;;;;;50.53;34.17;;;;;;;;;;4993381;28;20130;-81
2022/12/13 11:09:34;;;;;;;53.20;32.15;;;;;;;-1.77;100.00;66585.28;4994945;28;20133;-79
2022/12/13 11:12:09;;;;;;;51.03;29.58;;;;;;;;;;4993609;28;20049;-81
2022/12/13 11:14:38;;;;;;;51.50;29.02;;;;;;;;;;4996183;28;20038;-81
2022/12/13 11:17:13;;;;;;;56.40;34.17;;;;;;;-1.75;100.00;66590.69;4991643;28;20154;-79
2022/12/13 11:19:39;;;;;;;55.33;32.70;;;;;;;;;;4991878;28;20053;-79
2022/12/13 11:22:07;;;;;;;46.92;29.17;;;;;;;-1.78;100.00;66584.13;4994313;28;20329;-79
2022/12/13 11:24:36;;;;;;;53.35;33.60;;;;;;;-1.71;100.00;66592.56;4993645;28;20433;-78
2022/12/13 11:27:46;;;;;;;53.05;34.42;;;;;;;-1.54;100.00;66610.53;4992751;28;20517;-81